Time;durP1;ratioP1;P1;durP2;ratioP2;P2;SDS_P1;SDS_P2;PMS_P1;PMS_P2;Temp;Humidity;BMP_temperature;BMP_pressure;BME280_temperature;BME280_humidity;BME280_pressure;Samples;Min_cycle;Max_cycle;Signal;HPM_P1;HPM_P2
2023/08/22 00:00:41;;;;;;;4.22;2.63;;;;;;;24.63;34.82;101624.75;5030652;28;20067;-81
2023/08/22 00:03:08;;;;;;;4.15;2.85;;;;;;;24.62;34.83;101623.00;5031798;28;20050;-82
2023/08/22 00:05:36;;;;;;;4.88;3.10;;;;;;;24.60;35.14;101619.53;5033250;28;20040;-81
2023/08/22 00:08:06;;;;;;;4.57;2.78;;;;;;;24.60;34.92;101615.88;5036521;28;20057;-82
2023/08/22 00:10:36;;;;;;;5.25;3.15;;;;;;;24.59;35.04;101620.63;5034461;28;20041;-81
2023/08/22 00:13:05;;;;;;;4.53;2.67;;;;;;;24.56;34.92;101618.25;5031883;28;20512;-82
2023/08/22 00:15:34;;;;;;;5.03;2.90;;;;;;;24.54;35.12;101609.19;5032740;28;20036;-82
2023/08/22 00:18:02;;;;;;;4.30;2.85;;;;;;;24.51;34.95;101607.66;5033871;28;20049;-82
2023/08/22 00:20:30;;;;;;;4.90;3.00;;;;;;;24.50;35.05;101613.47;5043754;28;20422;-83
2023/08/22 00:22:58;;;;;;;5.32;2.92;;;;;;;24.48;34.83;101612.84;5029335;28;20061;-83
2023/08/22 00:25:26;;;;;;;4.10;2.85;;;;;;;24.47;35.02;101613.91;5031545;28;20045;-80
2023/08/22 00:27:55;;;;;;;4.70;3.20;;;;;;;24.48;35.30;101615.63;5029192;28;20055;-82
2023/08/22 00:30:23;;;;;;;5.93;3.10;;;;;;;24.43;35.37;101601.38;5035814;28;20091;-82
2023/08/22 00:32:51;;;;;;;5.00;3.08;;;;;;;24.41;35.38;101600.72;5032821;28;20056;-79
2023/08/22 00:35:19;;;;;;;6.03;3.25;;;;;;;24.40;35.40;101599.03;5034623;28;20060;-83
2023/08/22 00:37:47;;;;;;;5.03;3.03;;;;;;;24.37;35.21;101599.44;5036081;28;20131;-84
2023/08/22 00:40:15;;;;;;;4.90;3.15;;;;;;;24.35;35.13;101605.22;5044880;28;20041;-83
2023/08/22 00:42:43;;;;;;;4.30;2.90;;;;;;;24.33;35.44;101598.06;5039445;28;20037;-80
2023/08/22 00:45:12;;;;;;;4.85;2.95;;;;;;;24.34;35.44;101599.78;5034390;28;20045;-82
2023/08/22 00:47:40;;;;;;;5.22;3.13;;;;;;;24.30;35.66;101595.72;5029311;28;20061;-83
2023/08/22 00:50:10;;;;;;;4.70;3.35;;;;;;;24.28;35.64;101587.50;5029283;28;20520;-81
2023/08/22 00:52:38;;;;;;;5.00;3.17;;;;;;;24.27;35.62;101601.69;5037699;28;20043;-79
2023/08/22 00:55:07;;;;;;;4.90;3.38;;;;;;;24.26;35.51;101591.56;5042121;28;20513;-80
2023/08/22 00:57:37;;;;;;;5.70;3.58;;;;;;;24.23;35.84;101590.09;5028919;28;20128;-80
2023/08/22 01:00:09;;;;;;;5.15;3.30;;;;;;;24.23;35.89;101580.81;5026602;28;20457;-82
2023/08/22 01:02:40;;;;;;;4.82;3.25;;;;;;;24.19;35.95;101577.56;5031486;28;20098;-80
2023/08/22 01:05:10;;;;;;;4.80;3.35;;;;;;;24.17;35.87;101574.09;5031669;28;20049;-79
2023/08/22 01:07:46;;;;;;;4.18;3.15;;;;;;;24.17;35.93;101573.25;5031755;28;20132;-81
2023/08/22 01:10:20;;;;;;;4.70;3.20;;;;;;;24.15;36.21;101579.06;5034151;28;20047;-81
2023/08/22 01:12:53;;;;;;;4.25;2.95;;;;;;;24.12;35.84;101574.75;5028629;28;20037;-80
2023/08/22 01:15:25;;;;;;;5.15;3.15;;;;;;;24.10;36.01;101567.63;5042733;28;20050;-82
2023/08/22 01:17:56;;;;;;;5.53;3.10;;;;;;;24.06;36.06;101569.97;5028433;28;20037;-79
2023/08/22 01:20:27;;;;;;;5.25;3.15;;;;;;;24.04;36.03;101571.25;5028314;28;20045;-80
2023/08/22 01:22:58;;;;;;;5.80;3.45;;;;;;;24.04;35.90;101574.91;5031357;28;20065;-80
2023/08/22 01:25:27;;;;;;;4.22;3.25;;;;;;;24.02;36.04;101576.16;5034896;28;20047;-81
2023/08/22 01:28:05;;;;;;;5.47;3.50;;;;;;;24.02;36.09;101573.38;5033224;28;20033;-80
2023/08/22 01:30:41;;;;;;;4.32;3.00;;;;;;;23.98;35.99;101572.09;5026484;28;20114;-80
2023/08/22 01:33:16;;;;;;;5.82;3.30;;;;;;;23.97;36.37;101568.41;5027518;28;20405;-80
2023/08/22 01:35:49;;;;;;;5.10;3.00;;;;;;;23.97;36.75;101575.94;5026820;28;20053;-79
2023/08/22 01:38:20;;;;;;;4.35;3.10;;;;;;;23.93;36.34;101567.09;5050865;28;20049;-79
2023/08/22 01:40:49;;;;;;;4.53;3.30;;;;;;;23.91;36.07;101568.38;5020746;28;20046;-80
2023/08/22 01:43:18;;;;;;;4.63;3.15;;;;;;;23.87;36.44;101562.31;5032967;28;20088;-79
2023/08/22 01:45:46;;;;;;;6.18;3.20;;;;;;;23.85;36.45;101564.44;5033260;28;20040;-81
2023/08/22 01:48:14;;;;;;;6.35;4.03;;;;;;;23.83;36.58;101560.13;5019327;28;20636;-79
2023/08/22 01:50:43;;;;;;;5.18;3.08;;;;;;;23.80;36.38;101561.41;5022720;28;20084;-80
2023/08/22 01:53:11;;;;;;;5.95;3.50;;;;;;;23.78;36.50;101560.75;5032684;28;20045;-80
2023/08/22 01:55:40;;;;;;;5.13;3.25;;;;;;;23.76;36.84;101558.16;5030477;28;20123;-80
2023/08/22 01:58:10;;;;;;;5.13;3.40;;;;;;;23.74;37.01;101576.19;5026196;28;20065;-79
2023/08/22 02:00:40;;;;;;;5.32;3.00;;;;;;;23.72;36.65;101569.94;5025077;28;20120;-79
2023/08/22 02:03:08;;;;;;;6.35;3.70;;;;;;;23.71;36.61;101573.78;5026252;28;20091;-79
2023/08/22 02:05:36;;;;;;;5.20;3.45;;;;;;;23.70;36.55;101572.06;5028806;28;20049;-80
2023/08/22 02:08:05;;;;;;;4.22;3.05;;;;;;;23.70;36.73;101572.06;5031565;28;20694;-79
2023/08/22 02:10:33;;;;;;;4.40;3.00;;;;;;;23.68;36.84;101568.59;5028884;28;20072;-79
2023/08/22 02:13:02;;;;;;;4.22;3.05;;;;;;;23.69;36.69;101567.53;5029857;28;20060;-79
2023/08/22 02:15:31;;;;;;;5.65;3.17;;;;;;;23.66;36.86;101576.34;5030508;28;20045;-79
2023/08/22 02:17:59;;;;;;;4.93;3.05;;;;;;;23.66;36.90;101573.56;5029249;28;20152;-79
2023/08/22 02:20:27;;;;;;;6.25;3.53;;;;;;;23.64;36.94;101570.97;5027031;28;20037;-79
2023/08/22 02:22:55;;;;;;;4.97;3.13;;;;;;;23.63;36.94;101565.56;5026382;28;20069;-81
2023/08/22 02:25:24;;;;;;;3.88;2.95;;;;;;;23.62;36.86;101566.63;5022326;28;20076;-79
2023/08/22 02:27:52;;;;;;;4.22;2.60;;;;;;;23.59;36.95;101559.50;5028245;28;20037;-80
2023/08/22 02:30:22;;;;;;;4.15;2.75;;;;;;;23.59;36.63;101550.25;5031569;28;20053;-80
2023/08/22 02:32:50;;;;;;;7.25;2.80;;;;;;;23.55;36.72;101560.13;5026949;28;20041;-79
2023/08/22 02:35:19;;;;;;;5.97;3.13;;;;;;;23.53;36.93;101553.88;5018791;28;20144;-79
2023/08/22 02:37:47;;;;;;;5.15;3.20;;;;;;;23.51;37.12;101556.00;5025669;28;20103;-79
2023/08/22 02:40:15;;;;;;;5.95;3.33;;;;;;;23.47;37.27;101552.75;5022850;28;20134;-79
2023/08/22 02:42:44;;;;;;;5.45;2.88;;;;;;;23.47;37.10;101552.75;5025239;28;20095;-79
2023/08/22 02:45:12;;;;;;;4.43;3.00;;;;;;;23.46;37.18;101562.22;5029639;28;20046;-80
2023/08/22 02:47:41;;;;;;;5.13;3.00;;;;;;;23.46;37.17;101567.78;5025893;28;20131;-81
2023/08/22 02:50:10;;;;;;;5.78;3.72;;;;;;;23.42;37.18;101566.47;5029814;28;20059;-81
2023/08/22 02:52:38;;;;;;;5.88;3.47;;;;;;;23.39;37.20;101559.38;5021092;28;20061;-80
2023/08/22 02:55:07;;;;;;;5.72;3.22;;;;;;;23.37;37.26;101561.50;5032043;28;20045;-79
2023/08/22 02:57:35;;;;;;;5.38;3.22;;;;;;;23.35;36.76;101559.94;5020853;28;20132;-82
2023/08/22 03:00:06;;;;;;;5.15;2.90;;;;;;;23.34;37.25;101556.28;5021034;28;20060;-82
2023/08/22 03:02:34;;;;;;;4.88;2.97;;;;;;;23.31;37.38;101547.47;5028004;28;20130;-80
2023/08/22 03:05:06;;;;;;;4.38;3.08;;;;;;;23.31;37.11;101555.84;5027717;28;20045;-81
2023/08/22 03:07:34;;;;;;;4.70;2.90;;;;;;;23.26;37.18;101559.22;5026518;28;20049;-78
2023/08/22 03:10:03;;;;;;;5.40;3.03;;;;;;;23.25;37.59;101565.03;5024566;28;20046;-80
2023/08/22 03:12:31;;;;;;;5.47;3.25;;;;;;;23.21;37.55;101567.38;5028822;28;20087;-80
2023/08/22 03:14:59;;;;;;;6.28;3.15;;;;;;;23.20;37.27;101565.63;5034044;28;20091;-79
2023/08/22 03:17:27;;;;;;;5.72;2.92;;;;;;;23.17;37.20;101560.44;5032699;28;20049;-80
2023/08/22 03:19:55;;;;;;;5.28;2.78;;;;;;;23.15;37.23;101561.69;5038609;28;20037;-79
2023/08/22 03:22:24;;;;;;;5.05;2.65;;;;;;;23.14;37.24;101571.13;5051472;28;20063;-81
2023/08/22 03:24:52;;;;;;;5.10;2.97;;;;;;;23.11;37.44;101563.13;5037483;28;20048;-83
2023/08/22 03:27:23;;;;;;;4.18;2.55;;;;;;;23.09;37.71;101562.47;5041911;28;20045;-80
2023/08/22 03:29:51;;;;;;;4.88;2.60;;;;;;;23.06;37.67;101560.09;5033538;28;20053;-84
2023/08/22 03:32:19;;;;;;;4.90;2.92;;;;;;;23.03;37.50;101556.63;5030443;28;20497;-80
2023/08/22 03:34:46;;;;;;;4.53;2.70;;;;;;;23.01;37.75;101553.16;5027447;28;20038;-82
2023/08/22 03:37:14;;;;;;;5.05;2.50;;;;;;;23.00;37.57;101556.19;5026935;28;20132;-81
2023/08/22 03:39:44;;;;;;;5.45;3.20;;;;;;;22.97;37.63;101549.06;5026853;28;20045;-84
2023/08/22 03:42:11;;;;;;;4.45;2.80;;;;;;;22.93;37.66;101558.03;5050027;28;20049;-82
2023/08/22 03:44:40;;;;;;;4.38;2.75;;;;;;;22.90;37.72;101544.47;5029030;28;20041;-83
2023/08/22 03:47:08;;;;;;;4.90;2.78;;;;;;;22.87;37.67;101544.88;5029468;28;20417;-83
2023/08/22 03:49:43;;;;;;;4.82;2.53;;;;;;;22.84;37.72;101550.84;5026927;28;20073;-83
2023/08/22 03:52:13;;;;;;;4.78;2.70;;;;;;;22.81;37.81;101545.66;5027824;28;20064;-82
2023/08/22 03:54:41;;;;;;;4.30;2.53;;;;;;;22.79;37.89;101556.16;5034117;28;20041;-83
2023/08/22 03:57:10;;;;;;;4.15;2.58;;;;;;;22.79;37.88;101542.22;5041998;28;21510;-83
2023/08/22 03:59:38;;;;;;;4.68;2.80;;;;;;;22.73;38.22;101543.88;5042941;28;20033;-83
2023/08/22 04:02:06;;;;;;;4.75;2.58;;;;;;;22.72;38.19;101541.28;5029078;28;20096;-83
2023/08/22 04:04:34;;;;;;;3.85;2.58;;;;;;;22.70;38.23;101543.38;5033909;28;20041;-83
2023/08/22 04:07:02;;;;;;;4.90;2.78;;;;;;;22.68;37.97;101535.22;5027796;28;20045;-83
2023/08/22 04:09:30;;;;;;;4.03;2.50;;;;;;;22.68;38.23;101543.59;5029566;28;20099;-83
2023/08/22 04:11:59;;;;;;;4.10;2.33;;;;;;;22.70;38.27;101543.38;5034509;28;20061;-82
2023/08/22 04:14:29;;;;;;;4.35;2.60;;;;;;;22.69;38.01;101544.44;5028133;28;20045;-84
2023/08/22 04:16:57;;;;;;;5.88;2.67;;;;;;;22.67;38.50;101546.59;5029558;28;20055;-82
2023/08/22 04:19:25;;;;;;;4.47;2.60;;;;;;;22.66;38.31;101537.38;5046469;28;20049;-83
2023/08/22 04:21:53;;;;;;;3.85;2.80;;;;;;;22.66;38.57;101537.38;5029310;28;20041;-82
2023/08/22 04:24:21;;;;;;;4.93;3.05;;;;;;;22.65;38.45;101535.63;5027900;28;20073;-82
2023/08/22 04:26:51;;;;;;;5.03;3.00;;;;;;;22.65;38.37;101544.00;5022241;28;20100;-83
2023/08/22 04:29:20;;;;;;;6.32;2.72;;;;;;;22.64;38.24;101542.28;5050737;28;20048;-83
2023/08/22 04:31:49;;;;;;;4.57;2.50;;;;;;;22.67;38.51;101549.38;5039355;28;20053;-83
2023/08/22 04:34:17;;;;;;;4.93;2.75;;;;;;;22.63;38.35;101548.91;5023284;28;20061;-82
2023/08/22 04:36:52;;;;;;;5.95;3.08;;;;;;;22.62;38.64;101544.38;5024055;28;20583;-82
2023/08/22 04:39:20;;;;;;;4.78;2.88;;;;;;;22.62;38.66;101548.03;5023127;28;20041;-82
2023/08/22 04:41:52;;;;;;;4.53;2.65;;;;;;;22.59;38.27;101555.97;5022677;28;20132;-83
2023/08/22 04:44:35;;;;;;;5.78;3.10;;;;;;;22.60;38.36;101549.28;5020236;28;20049;-81
2023/08/22 04:47:05;;;;;;;4.53;2.63;;;;;;;22.61;38.55;101549.09;5035805;28;20489;-82
2023/08/22 04:49:33;;;;;;;4.93;2.85;;;;;;;22.60;38.48;101555.72;5026578;28;20072;-84
2023/08/22 04:52:01;;;;;;;4.65;2.33;;;;;;;22.58;38.44;101549.50;5028202;28;20041;-82
2023/08/22 04:54:29;;;;;;;4.93;3.17;;;;;;;22.58;38.31;101551.44;5035248;28;20037;-82
2023/08/22 04:56:57;;;;;;;4.47;2.78;;;;;;;22.55;38.44;101552.69;5034858;28;20048;-81
2023/08/22 04:59:25;;;;;;;4.72;2.72;;;;;;;22.57;38.27;101553.34;5033177;28;20112;-82
2023/08/22 05:01:53;;;;;;;4.97;2.97;;;;;;;22.56;38.51;101547.97;5039086;28;20087;-82
2023/08/22 05:04:22;;;;;;;5.55;3.00;;;;;;;22.58;38.71;101537.47;5044659;28;20080;-83
2023/08/22 05:06:50;;;;;;;4.13;2.70;;;;;;;22.56;38.61;101545.19;5039814;28;20120;-83
2023/08/22 05:09:19;;;;;;;7.15;3.53;;;;;;;22.55;38.58;101547.09;5032968;28;20124;-83
2023/08/22 05:11:47;;;;;;;6.43;3.25;;;;;;;22.55;38.58;101543.44;5027390;28;20045;-82
2023/08/22 05:14:18;;;;;;;5.35;3.00;;;;;;;22.55;38.73;101547.09;5046621;28;20049;-83
2023/08/22 05:16:46;;;;;;;5.70;3.08;;;;;;;22.54;38.80;101548.16;5023628;28;20041;-83
2023/08/22 05:19:15;;;;;;;5.45;3.20;;;;;;;22.55;38.88;101560.19;5029670;28;20041;-84
2023/08/22 05:21:44;;;;;;;5.60;3.22;;;;;;;22.57;38.83;101552.50;5028860;28;20045;-83
2023/08/22 05:24:12;;;;;;;4.72;2.90;;;;;;;22.54;38.88;101556.53;5032508;28;20143;-83
2023/08/22 05:26:40;;;;;;;4.82;3.17;;;;;;;22.55;38.68;101551.81;5034918;28;20052;-84
2023/08/22 05:29:08;;;;;;;4.28;3.00;;;;;;;22.54;38.98;101550.94;5057307;28;20052;-82
2023/08/22 05:31:36;;;;;;;5.00;3.05;;;;;;;22.56;38.99;101559.13;5042256;28;20049;-84
2023/08/22 05:34:05;;;;;;;5.10;3.08;;;;;;;22.56;39.04;101557.22;5023133;28;20960;-84
2023/08/22 05:36:33;;;;;;;5.18;3.03;;;;;;;22.56;38.87;101554.41;5028785;28;20045;-83
2023/08/22 05:39:02;;;;;;;5.45;2.97;;;;;;;22.60;39.08;101566.91;5020687;28;20132;-83
2023/08/22 05:41:31;;;;;;;6.18;3.50;;;;;;;22.57;39.09;101558.94;5027020;28;20067;-83
2023/08/22 05:43:59;;;;;;;5.20;3.25;;;;;;;22.59;39.01;101564.31;5034490;28;20118;-84
2023/08/22 05:46:28;;;;;;;6.47;3.40;;;;;;;22.59;38.80;101567.13;5030109;28;20037;-84
2023/08/22 05:48:57;;;;;;;5.43;3.42;;;;;;;22.56;39.17;101565.56;5026832;28;20048;-83
2023/08/22 05:51:25;;;;;;;6.05;3.33;;;;;;;22.56;39.21;101567.50;5028380;28;20047;-83
2023/08/22 05:53:53;;;;;;;6.80;3.83;;;;;;;22.57;39.45;101560.88;5030432;28;20392;-83
2023/08/22 05:56:22;;;;;;;5.00;3.20;;;;;;;22.60;39.12;101566.91;5024104;28;20042;-83
2023/08/22 05:58:51;;;;;;;5.93;3.47;;;;;;;22.58;39.19;101569.03;5024319;28;20111;-83
2023/08/22 06:01:21;;;;;;;6.13;2.97;;;;;;;22.55;39.49;101566.63;5013197;28;20041;-84
2023/08/22 06:04:00;;;;;;;6.20;3.20;;;;;;;22.54;39.66;101573.25;5030018;28;20041;-83
2023/08/22 06:07:15;;;;;;;6.05;3.15;;;;;;;22.58;39.68;101574.63;5020702;28;20042;-82
2023/08/22 06:09:49;;;;;;;5.28;2.85;;;;;;;22.52;39.53;101566.97;5020282;28;20045;-82
2023/08/22 06:12:19;;;;;;;4.90;2.85;;;;;;;22.56;39.77;101565.56;5024040;28;20618;-82
2023/08/22 06:14:47;;;;;;;4.60;3.10;;;;;;;22.54;39.57;101570.47;5023969;28;20509;-84
2023/08/22 06:17:15;;;;;;;5.03;3.10;;;;;;;22.57;39.77;101577.59;5044183;28;20041;-83
2023/08/22 06:19:44;;;;;;;7.35;3.75;;;;;;;22.58;39.66;101574.63;5028643;28;20053;-84
2023/08/22 06:22:11;;;;;;;5.72;3.42;;;;;;;22.59;40.18;101570.75;5034819;28;20049;-83
2023/08/22 06:24:39;;;;;;;6.10;3.38;;;;;;;22.61;39.84;101577.00;5042097;28;20082;-83
2023/08/22 06:27:07;;;;;;;5.43;3.13;;;;;;;22.63;39.98;101586.03;5040249;28;20509;-83
2023/08/22 06:29:37;;;;;;;5.30;3.42;;;;;;;22.66;40.02;101583.94;5053899;28;20060;-83
2023/08/22 06:32:05;;;;;;;6.43;3.88;;;;;;;22.66;39.99;101578.34;5037811;28;20128;-81
2023/08/22 06:34:36;;;;;;;7.57;3.50;;;;;;;22.66;40.34;101579.22;5034212;28;20491;-81
2023/08/22 06:37:05;;;;;;;6.07;3.33;;;;;;;22.68;40.12;101582.66;5033685;28;20499;-81
2023/08/22 06:39:34;;;;;;;6.80;3.38;;;;;;;22.70;40.25;101588.91;5033634;28;20048;-82
2023/08/22 06:42:02;;;;;;;5.35;3.42;;;;;;;22.72;40.32;101591.50;5049494;28;20113;-81
2023/08/22 06:44:30;;;;;;;7.28;4.00;;;;;;;22.73;40.37;101588.53;5033389;28;20060;-81
2023/08/22 06:46:59;;;;;;;6.35;3.85;;;;;;;22.75;40.29;101582.75;5033604;28;20057;-82
2023/08/22 06:49:27;;;;;;;6.70;3.83;;;;;;;22.74;40.47;101576.31;5042611;28;20041;-81
2023/08/22 06:51:56;;;;;;;5.43;3.97;;;;;;;22.76;40.48;101584.44;5026082;28;20154;-82
2023/08/22 06:54:26;;;;;;;7.80;3.85;;;;;;;22.79;40.68;101595.22;5030065;28;20048;-81
2023/08/22 06:56:54;;;;;;;7.35;4.28;;;;;;;22.80;41.00;101586.66;5032538;28;20151;-81
2023/08/22 06:59:22;;;;;;;5.93;3.97;;;;;;;22.84;41.04;101581.53;5028882;28;20053;-81
2023/08/22 07:01:50;;;;;;;6.32;3.88;;;;;;;22.86;41.05;101579.41;5006816;28;20127;-80
2023/08/22 07:04:19;;;;;;;5.50;4.15;;;;;;;22.94;41.12;101584.88;5023297;28;20054;-81
2023/08/22 07:06:47;;;;;;;6.10;4.05;;;;;;;22.97;41.23;101587.28;5023981;28;20049;-81
2023/08/22 07:09:15;;;;;;;5.45;3.80;;;;;;;23.03;41.58;101581.75;5031327;28;20067;-80
2023/08/22 07:11:43;;;;;;;6.43;4.22;;;;;;;23.08;41.17;101589.56;5032886;28;20094;-81
2023/08/22 07:14:11;;;;;;;7.20;4.20;;;;;;;23.13;41.23;101589.81;5030589;28;20290;-79
2023/08/22 07:16:39;;;;;;;7.28;4.53;;;;;;;23.19;41.06;101593.75;5026284;28;20111;-80
2023/08/22 07:19:07;;;;;;;5.68;3.90;;;;;;;23.24;41.04;101599.63;5035266;28;20037;-80
2023/08/22 07:21:36;;;;;;;8.00;4.82;;;;;;;23.29;40.74;101595.16;5030675;28;20119;-79
2023/08/22 07:24:04;;;;;;;5.10;4.32;;;;;;;23.31;40.74;101594.97;5029465;28;20164;-80
2023/08/22 07:26:32;;;;;;;7.03;4.45;;;;;;;23.34;40.84;101600.13;5050750;28;20060;-80
2023/08/22 07:29:00;;;;;;;5.82;3.90;;;;;;;23.38;40.93;101595.88;5035736;28;20128;-79
2023/08/22 07:31:28;;;;;;;7.88;4.82;;;;;;;23.42;41.23;101594.38;5016871;28;20065;-79
2023/08/22 07:33:56;;;;;;;7.18;4.40;;;;;;;23.47;41.10;101594.69;5012408;28;20066;-80
2023/08/22 07:36:24;;;;;;;7.40;4.43;;;;;;;23.53;40.94;101593.84;5018872;28;20065;-80
2023/08/22 07:38:53;;;;;;;6.43;4.40;;;;;;;23.62;40.84;101602.94;5023635;28;20450;-80
2023/08/22 07:41:21;;;;;;;7.55;4.68;;;;;;;23.66;41.00;101593.94;5027855;28;20512;-81
2023/08/22 07:43:49;;;;;;;6.38;4.32;;;;;;;23.73;41.29;101602.41;5034200;28;20515;-80
2023/08/22 07:46:19;;;;;;;6.53;4.63;;;;;;;23.81;41.11;101613.47;5031890;28;20400;-79
2023/08/22 07:48:47;;;;;;;6.20;4.40;;;;;;;23.90;41.31;101612.25;5015082;28;20061;-78
2023/08/22 07:51:15;;;;;;;6.47;4.35;;;;;;;23.99;41.15;101610.16;5010650;28;20104;-79
2023/08/22 07:53:43;;;;;;;7.05;4.07;;;;;;;24.08;41.09;101608.91;5008665;28;20137;-79
2023/08/22 07:56:12;;;;;;;7.20;4.03;;;;;;;24.22;40.98;101615.47;5022322;28;20068;-79
2023/08/22 07:58:40;;;;;;;9.07;4.78;;;;;;;24.30;40.87;101613.34;5029486;28;20472;-80
2023/08/22 08:01:09;;;;;;;5.53;3.97;;;;;;;24.42;40.82;101622.03;5031684;28;20046;-79
2023/08/22 08:03:39;;;;;;;6.95;4.32;;;;;;;24.51;40.86;101621.66;5020095;28;20053;-80
2023/08/22 08:06:07;;;;;;;7.32;4.70;;;;;;;24.66;40.45;101626.22;5006419;28;20104;-77
2023/08/22 08:08:35;;;;;;;9.73;4.95;;;;;;;24.76;40.09;101627.56;5030505;28;20591;-78
2023/08/22 08:11:04;;;;;;;8.13;4.65;;;;;;;24.87;39.87;101623.31;5028033;28;20505;-80
2023/08/22 08:13:33;;;;;;;6.35;4.15;;;;;;;24.99;39.64;101624.44;5033552;28;20037;-80
2023/08/22 08:16:04;;;;;;;7.75;4.47;;;;;;;25.03;39.74;101620.16;5018728;28;20045;-79
2023/08/22 08:18:34;;;;;;;6.50;4.07;;;;;;;25.14;38.95;101624.28;5010132;28;20049;-80
2023/08/22 08:21:02;;;;;;;8.13;4.85;;;;;;;25.23;38.70;101628.59;5016222;28;20099;-79
2023/08/22 08:23:31;;;;;;;8.40;5.22;;;;;;;25.31;38.29;101616.34;5030499;28;20132;-79
2023/08/22 08:25:59;;;;;;;8.15;4.53;;;;;;;25.37;38.59;101624.75;5037548;28;20071;-78
2023/08/22 08:28:27;;;;;;;6.22;4.20;;;;;;;25.42;37.98;101624.97;5031025;28;20539;-84
2023/08/22 08:30:59;;;;;;;6.15;4.68;;;;;;;25.51;37.97;101631.25;5030956;28;20037;-85
2023/08/22 08:33:27;;;;;;;7.00;4.18;;;;;;;25.53;38.53;101634.72;5044950;28;20052;-84
2023/08/22 08:35:55;;;;;;;7.80;4.70;;;;;;;25.62;38.41;101631.47;5023054;28;20099;-84
2023/08/22 08:38:23;;;;;;;9.05;5.38;;;;;;;25.73;37.77;101626.28;5019950;28;20473;-84
2023/08/22 08:40:56;;;;;;;5.93;3.95;;;;;;;25.83;37.71;101630.38;5018265;28;20045;-84
2023/08/22 08:43:24;;;;;;;7.10;4.43;;;;;;;25.90;37.98;101625.63;5020512;28;20049;-83
2023/08/22 08:45:52;;;;;;;8.32;4.45;;;;;;;25.99;37.64;101629.94;5023734;28;20046;-84
2023/08/22 08:48:22;;;;;;;7.90;4.28;;;;;;;26.11;37.24;101643.34;5014540;28;20144;-83
2023/08/22 08:50:51;;;;;;;7.10;4.47;;;;;;;26.19;37.31;101643.97;5029715;28;20034;-84
2023/08/22 08:53:20;;;;;;;7.63;4.00;;;;;;;26.30;37.00;101650.81;5039422;28;20045;-84
2023/08/22 08:55:48;;;;;;;6.28;4.13;;;;;;;26.37;37.00;101646.94;5014688;28;20046;-85
2023/08/22 08:58:16;;;;;;;5.72;3.63;;;;;;;26.46;37.08;101641.97;5030111;28;20125;-85
2023/08/22 09:00:45;;;;;;;7.63;3.78;;;;;;;26.57;36.46;101632.81;5026955;28;20052;-84
2023/08/22 09:03:13;;;;;;;6.50;4.35;;;;;;;26.65;36.15;101631.75;5035665;28;20431;-85
2023/08/22 09:05:43;;;;;;;6.45;4.38;;;;;;;26.77;36.02;101629.97;5038392;28;20037;-85
2023/08/22 09:08:18;;;;;;;5.90;3.53;;;;;;;26.89;35.39;101638.53;5018075;28;20056;-84
2023/08/22 09:10:51;;;;;;;5.88;3.90;;;;;;;26.97;35.28;101636.34;5012447;28;20033;-84
2023/08/22 09:13:25;;;;;;;8.63;4.20;;;;;;;27.08;35.10;101644.06;5016969;28;20481;-84
2023/08/22 09:16:08;;;;;;;5.97;3.67;;;;;;;27.14;35.65;101640.34;5011641;28;20042;-83
2023/08/22 09:18:41;;;;;;;7.38;4.25;;;;;;;27.27;35.05;101644.22;5022578;28;20045;-83
2023/08/22 09:21:11;;;;;;;7.80;4.05;;;;;;;27.36;34.98;101635.28;5015422;28;20069;-84
2023/08/22 09:23:42;;;;;;;7.72;4.00;;;;;;;27.45;34.65;101644.31;5019055;28;20103;-85
2023/08/22 09:26:12;;;;;;;5.35;3.42;;;;;;;27.53;34.24;101652.47;5019864;28;20057;-84
2023/08/22 09:28:40;;;;;;;6.25;2.90;;;;;;;27.58;33.90;101641.38;5037596;28;20051;-84
2023/08/22 09:31:08;;;;;;;5.75;3.40;;;;;;;27.63;33.75;101644.34;5026386;28;20141;-84
2023/08/22 09:33:45;;;;;;;4.68;2.90;;;;;;;27.72;32.28;101645.81;5017640;28;20204;-84
2023/08/22 09:36:19;;;;;;;6.60;3.17;;;;;;;27.76;32.83;101638.66;5014653;28;20152;-84
2023/08/22 09:38:52;;;;;;;6.47;3.28;;;;;;;27.83;32.33;101644.22;5014195;28;20540;-84
2023/08/22 09:41:22;;;;;;;7.00;3.10;;;;;;;27.88;32.89;101641.56;5008077;28;20111;-84
2023/08/22 09:43:58;;;;;;;6.03;3.30;;;;;;;27.92;32.79;101637.22;5010875;28;20073;-85
2023/08/22 09:46:27;;;;;;;8.02;3.00;;;;;;;27.99;32.53;101629.56;5009185;28;20053;-84
2023/08/22 09:48:57;;;;;;;5.00;2.65;;;;;;;28.04;32.48;101624.09;5016667;28;20091;-85
2023/08/22 09:51:26;;;;;;;4.07;2.65;;;;;;;28.08;32.13;101621.69;5023777;28;20037;-85
2023/08/22 09:53:59;;;;;;;5.60;2.65;;;;;;;28.11;32.35;101635.31;5037931;28;20067;-84
2023/08/22 09:56:27;;;;;;;4.57;2.58;;;;;;;28.14;31.79;101623.56;5046304;28;20167;-85
2023/08/22 09:58:57;;;;;;;4.82;2.85;;;;;;;28.18;31.41;101622.88;5043380;28;20149;-85
2023/08/22 10:01:26;;;;;;;7.00;3.10;;;;;;;28.18;31.57;101620.06;5040593;28;20045;-85
2023/08/22 10:03:58;;;;;;;5.10;2.80;;;;;;;28.19;31.39;101618.13;5021209;28;20057;-84
2023/08/22 10:06:30;;;;;;;3.90;2.60;;;;;;;28.26;31.04;101620.88;5024681;28;20862;-85
2023/08/22 10:09:14;;;;;;;4.50;2.45;;;;;;;28.24;31.38;101621.97;5014756;28;20060;-84
2023/08/22 10:11:45;;;;;;;4.82;2.30;;;;;;;28.29;30.98;101623.22;5032712;28;20046;-85
2023/08/22 10:14:19;;;;;;;5.32;2.10;;;;;;;28.30;30.75;101611.72;5031318;28;20099;-85
2023/08/22 10:16:48;;;;;;;4.93;2.30;;;;;;;28.30;30.63;101608.91;5036767;28;20038;-84
2023/08/22 10:19:17;;;;;;;4.53;2.22;;;;;;;28.35;31.06;101611.03;5024729;28;20045;-86
2023/08/22 10:21:48;;;;;;;4.15;1.85;;;;;;;28.39;30.48;101609.47;5015033;28;20045;-82
2023/08/22 10:24:22;;;;;;;4.15;2.00;;;;;;;28.43;30.47;101613.53;5031255;28;20074;-85
2023/08/22 10:27:02;;;;;;;3.17;1.90;;;;;;;28.43;29.90;101614.41;5031524;28;20042;-84
2023/08/22 10:29:36;;;;;;;4.10;1.88;;;;;;;28.41;30.61;101607.28;5015800;28;20120;-82
2023/08/22 10:32:18;;;;;;;3.90;1.90;;;;;;;28.46;29.65;101613.06;5015619;28;20085;-79
2023/08/22 10:35:05;;;;;;;;;;;;;;;28.13;31.04;101625.50;5013548;28;20052;-79
2023/08/22 10:37:47;;;;;;;3.17;1.90;;;;;;;28.45;29.25;101603.75;5031231;28;20349;-78
2023/08/22 10:40:23;;;;;;;2.50;1.60;;;;;;;28.47;29.56;101604.38;5012607;28;20045;-78
2023/08/22 10:43:03;;;;;;;4.00;2.05;;;;;;;28.47;30.01;101611.97;5016280;28;20093;-83
2023/08/22 10:46:25;;;;;;;4.25;1.50;;;;;;;28.45;29.37;101606.56;5004610;28;20060;-83
2023/08/22 10:49:22;;;;;;;3.22;1.70;;;;;;;28.40;29.39;101605.56;5014384;28;20050;-83
2023/08/22 10:52:10;;;;;;;4.93;2.28;;;;;;;28.45;29.32;101605.69;4999010;28;20046;-83
2023/08/22 10:59:04;;;;;;;2.30;1.60;;;;;;;28.39;29.96;101612.28;5023740;28;20041;-84
2023/08/22 11:01:33;;;;;;;3.40;1.92;;;;;;;28.37;29.94;101603.19;5030396;28;20489;-84
2023/08/22 11:04:03;;;;;;;3.10;1.95;;;;;;;28.37;29.97;101611.63;5011247;28;20527;-83
2023/08/22 11:06:31;;;;;;;4.30;1.88;;;;;;;28.36;29.89;101616.41;5024126;28;20043;-83
2023/08/22 11:09:00;;;;;;;3.63;1.77;;;;;;;28.36;29.73;101624.00;5044664;28;20501;-83
2023/08/22 11:11:28;;;;;;;4.57;2.13;;;;;;;28.34;29.78;101613.00;5030699;28;20497;-84
2023/08/22 11:13:59;;;;;;;2.92;1.85;;;;;;;28.36;28.97;101619.22;5011001;28;20039;-85
2023/08/22 11:16:29;;;;;;;4.47;2.10;;;;;;;28.33;29.72;101616.91;5009915;28;20609;-85
2023/08/22 11:18:57;;;;;;;5.60;1.90;;;;;;;28.29;29.24;101604.38;5009758;28;20513;-85
2023/08/22 11:21:26;;;;;;;4.38;2.17;;;;;;;28.29;29.56;101603.50;5018620;28;20459;-85
2023/08/22 11:23:54;;;;;;;3.90;2.20;;;;;;;28.28;29.42;101601.78;5039622;28;20037;-83
2023/08/22 11:26:22;;;;;;;3.63;2.03;;;;;;;28.25;29.47;101603.13;5032537;28;20528;-84
2023/08/22 11:28:51;;;;;;;4.75;2.40;;;;;;;28.22;29.52;101618.53;5041414;28;20073;-85
2023/08/22 11:31:19;;;;;;;4.70;2.15;;;;;;;28.20;29.96;101611.38;5018139;28;20041;-85
2023/08/22 11:33:51;;;;;;;4.07;2.10;;;;;;;28.20;29.73;101611.38;5033765;28;20040;-86
2023/08/22 11:36:20;;;;;;;4.95;2.00;;;;;;;28.14;29.85;101615.13;5016036;28;20060;-84
2023/08/22 11:38:52;;;;;;;4.32;2.53;;;;;;;28.12;30.04;101620.13;5015096;28;20052;-86
2023/08/22 11:41:21;;;;;;;3.20;1.70;;;;;;;28.12;29.83;101614.47;5023275;28;20046;-86